EmailTwitter


Observations de surface / Québec / CYQB (71714)

Régions: Québec | Canada | États-Unis | Europe | France | UK | Ailleurs
Station
Affichage
Infos & localisation pour CYQB (71714) | Aide pour décoder les METARs

Observations prises le 2018-07-18 à 06H00 UTC à QUEBEC A, QB (CYQB)

Etat du ciel: quelques nuages.

Température: 17.0 Celsius

Point de rosée: 13.0 Celsius

Humidité relative: 77%

Vents: Nord-ouest à 6 km/h ou 3 noeuds.

Pression au niveau moyen de la mer: 100.86 kilopascals.

Calage altimétrique: 100.85 kilopascals ou 29.78 pouces de mercure.

Visibilité horizontale: 15.00 milles terrestres ou 24.00 kilomètres.

Observation METAR:

CYQB 180600Z 33003KT 270V010 15SM FEW035 FEW080 17/13 A2978 RMK SC1AC1 SLP086

DENSITY ALT 700FT=